sensor_id;sensor_type;location;lat;lon;timestamp;P1;durP1;ratioP1;P2;durP2;ratioP2
8312;SDS011;4194;43.408;24.626;2024-03-02T00:01:04;64.13;;;35.50;;
8312;SDS011;4194;43.408;24.626;2024-03-02T00:03:31;63.70;;;35.10;;
8312;SDS011;4194;43.408;24.626;2024-03-02T00:05:57;59.03;;;34.33;;
8312;SDS011;4194;43.408;24.626;2024-03-02T00:08:23;59.63;;;34.80;;
8312;SDS011;4194;43.408;24.626;2024-03-02T00:10:56;64.57;;;36.07;;
8312;SDS011;4194;43.408;24.626;2024-03-02T00:13:23;60.17;;;34.40;;
8312;SDS011;4194;43.408;24.626;2024-03-02T00:15:55;63.70;;;33.93;;
8312;SDS011;4194;43.408;24.626;2024-03-02T00:18:32;64.57;;;35.13;;
8312;SDS011;4194;43.408;24.626;2024-03-02T00:20:59;58.57;;;33.53;;
8312;SDS011;4194;43.408;24.626;2024-03-02T00:23:32;62.07;;;36.43;;
8312;SDS011;4194;43.408;24.626;2024-03-02T00:26:00;59.17;;;33.97;;
8312;SDS011;4194;43.408;24.626;2024-03-02T00:33:23;68.47;;;35.50;;
8312;SDS011;4194;43.408;24.626;2024-03-02T00:35:52;76.87;;;37.13;;
8312;SDS011;4194;43.408;24.626;2024-03-02T00:38:19;60.43;;;34.47;;
8312;SDS011;4194;43.408;24.626;2024-03-02T00:40:45;65.43;;;35.57;;
8312;SDS011;4194;43.408;24.626;2024-03-02T00:43:18;61.03;;;34.63;;
8312;SDS011;4194;43.408;24.626;2024-03-02T00:46:10;63.67;;;33.23;;
8312;SDS011;4194;43.408;24.626;2024-03-02T00:48:50;62.97;;;34.47;;
8312;SDS011;4194;43.408;24.626;2024-03-02T00:51:24;56.83;;;33.53;;
8312;SDS011;4194;43.408;24.626;2024-03-02T00:53:52;54.67;;;32.70;;
8312;SDS011;4194;43.408;24.626;2024-03-02T00:56:47;61.60;;;31.30;;
8312;SDS011;4194;43.408;24.626;2024-03-02T00:59:13;67.47;;;33.60;;
8312;SDS011;4194;43.408;24.626;2024-03-02T01:01:39;57.13;;;34.20;;
8312;SDS011;4194;43.408;24.626;2024-03-02T01:04:05;61.73;;;33.40;;
8312;SDS011;4194;43.408;24.626;2024-03-02T01:06:30;60.27;;;34.57;;
8312;SDS011;4194;43.408;24.626;2024-03-02T01:08:56;58.97;;;32.60;;
8312;SDS011;4194;43.408;24.626;2024-03-02T01:11:22;60.77;;;33.77;;
8312;SDS011;4194;43.408;24.626;2024-03-02T01:13:48;54.10;;;32.20;;
8312;SDS011;4194;43.408;24.626;2024-03-02T01:16:14;51.80;;;30.77;;
8312;SDS011;4194;43.408;24.626;2024-03-02T01:18:41;57.57;;;31.60;;
8312;SDS011;4194;43.408;24.626;2024-03-02T01:21:07;56.40;;;32.53;;
8312;SDS011;4194;43.408;24.626;2024-03-02T01:23:33;59.30;;;32.30;;
8312;SDS011;4194;43.408;24.626;2024-03-02T01:25:58;58.33;;;31.87;;
8312;SDS011;4194;43.408;24.626;2024-03-02T01:28:24;59.07;;;31.30;;
8312;SDS011;4194;43.408;24.626;2024-03-02T01:30:50;53.30;;;31.33;;
8312;SDS011;4194;43.408;24.626;2024-03-02T01:33:19;55.67;;;29.77;;
8312;SDS011;4194;43.408;24.626;2024-03-02T01:35:45;54.20;;;30.33;;
8312;SDS011;4194;43.408;24.626;2024-03-02T01:38:11;54.03;;;31.97;;
8312;SDS011;4194;43.408;24.626;2024-03-02T01:40:37;54.77;;;30.40;;
8312;SDS011;4194;43.408;24.626;2024-03-02T01:43:03;51.00;;;30.57;;
8312;SDS011;4194;43.408;24.626;2024-03-02T01:45:30;49.33;;;29.63;;
8312;SDS011;4194;43.408;24.626;2024-03-02T01:47:56;49.03;;;29.63;;
8312;SDS011;4194;43.408;24.626;2024-03-02T01:50:25;50.13;;;30.47;;
8312;SDS011;4194;43.408;24.626;2024-03-02T01:52:51;49.33;;;28.03;;
8312;SDS011;4194;43.408;24.626;2024-03-02T01:55:17;41.90;;;26.37;;
8312;SDS011;4194;43.408;24.626;2024-03-02T01:57:43;41.07;;;25.27;;
8312;SDS011;4194;43.408;24.626;2024-03-02T02:00:10;43.13;;;25.17;;
8312;SDS011;4194;43.408;24.626;2024-03-02T02:02:36;38.90;;;24.77;;
8312;SDS011;4194;43.408;24.626;2024-03-02T02:05:02;42.27;;;24.80;;
8312;SDS011;4194;43.408;24.626;2024-03-02T02:07:28;40.50;;;25.23;;
8312;SDS011;4194;43.408;24.626;2024-03-02T02:09:54;39.43;;;25.00;;
8312;SDS011;4194;43.408;24.626;2024-03-02T02:12:20;40.77;;;25.13;;
8312;SDS011;4194;43.408;24.626;2024-03-02T02:14:48;37.40;;;23.13;;
8312;SDS011;4194;43.408;24.626;2024-03-02T02:17:18;39.30;;;23.10;;
8312;SDS011;4194;43.408;24.626;2024-03-02T02:19:43;38.27;;;24.60;;
8312;SDS011;4194;43.408;24.626;2024-03-02T02:22:10;37.70;;;24.80;;
8312;SDS011;4194;43.408;24.626;2024-03-02T02:24:35;34.90;;;23.87;;
8312;SDS011;4194;43.408;24.626;2024-03-02T02:27:04;37.97;;;23.93;;
8312;SDS011;4194;43.408;24.626;2024-03-02T02:29:30;38.07;;;25.33;;
8312;SDS011;4194;43.408;24.626;2024-03-02T02:31:56;39.83;;;24.00;;
8312;SDS011;4194;43.408;24.626;2024-03-02T02:34:21;44.43;;;24.70;;
8312;SDS011;4194;43.408;24.626;2024-03-02T02:36:47;39.30;;;24.47;;
8312;SDS011;4194;43.408;24.626;2024-03-02T02:39:14;37.23;;;23.00;;
8312;SDS011;4194;43.408;24.626;2024-03-02T02:41:42;30.97;;;21.97;;
8312;SDS011;4194;43.408;24.626;2024-03-02T02:44:08;30.03;;;20.23;;
8312;SDS011;4194;43.408;24.626;2024-03-02T02:46:36;31.73;;;19.83;;
8312;SDS011;4194;43.408;24.626;2024-03-02T02:49:03;33.63;;;20.37;;
8312;SDS011;4194;43.408;24.626;2024-03-02T02:51:28;35.03;;;19.77;;
8312;SDS011;4194;43.408;24.626;2024-03-02T02:53:54;31.80;;;19.47;;
8312;SDS011;4194;43.408;24.626;2024-03-02T02:56:20;32.67;;;20.23;;
8312;SDS011;4194;43.408;24.626;2024-03-02T02:58:45;34.63;;;19.50;;
8312;SDS011;4194;43.408;24.626;2024-03-02T03:01:11;31.07;;;18.77;;
8312;SDS011;4194;43.408;24.626;2024-03-02T03:03:37;29.20;;;19.37;;
8312;SDS011;4194;43.408;24.626;2024-03-02T03:06:02;33.23;;;19.30;;
8312;SDS011;4194;43.408;24.626;2024-03-02T03:08:28;28.53;;;17.03;;
8312;SDS011;4194;43.408;24.626;2024-03-02T03:10:54;32.33;;;18.13;;
8312;SDS011;4194;43.408;24.626;2024-03-02T03:13:20;31.00;;;17.67;;
8312;SDS011;4194;43.408;24.626;2024-03-02T03:15:46;31.17;;;17.37;;
8312;SDS011;4194;43.408;24.626;2024-03-02T03:18:11;35.33;;;17.87;;
8312;SDS011;4194;43.408;24.626;2024-03-02T03:20:37;28.37;;;16.37;;
8312;SDS011;4194;43.408;24.626;2024-03-02T03:23:02;30.47;;;17.20;;
8312;SDS011;4194;43.408;24.626;2024-03-02T03:25:29;30.20;;;16.33;;
8312;SDS011;4194;43.408;24.626;2024-03-02T03:27:55;27.13;;;17.03;;
8312;SDS011;4194;43.408;24.626;2024-03-02T03:30:21;29.73;;;16.37;;
8312;SDS011;4194;43.408;24.626;2024-03-02T03:32:46;28.67;;;16.67;;
8312;SDS011;4194;43.408;24.626;2024-03-02T03:35:15;28.90;;;16.30;;
8312;SDS011;4194;43.408;24.626;2024-03-02T03:37:41;30.40;;;17.33;;
8312;SDS011;4194;43.408;24.626;2024-03-02T03:40:07;30.20;;;17.87;;
8312;SDS011;4194;43.408;24.626;2024-03-02T03:42:36;26.07;;;17.30;;
8312;SDS011;4194;43.408;24.626;2024-03-02T03:45:03;34.40;;;18.00;;
8312;SDS011;4194;43.408;24.626;2024-03-02T03:47:30;31.70;;;17.90;;
8312;SDS011;4194;43.408;24.626;2024-03-02T03:49:56;27.23;;;17.70;;
8312;SDS011;4194;43.408;24.626;2024-03-02T03:52:22;31.67;;;16.93;;
8312;SDS011;4194;43.408;24.626;2024-03-02T03:54:48;31.63;;;16.70;;
8312;SDS011;4194;43.408;24.626;2024-03-02T03:57:14;38.23;;;17.07;;
8312;SDS011;4194;43.408;24.626;2024-03-02T03:59:40;29.23;;;17.13;;
8312;SDS011;4194;43.408;24.626;2024-03-02T04:02:06;33.03;;;17.13;;
8312;SDS011;4194;43.408;24.626;2024-03-02T04:04:32;33.67;;;16.63;;
8312;SDS011;4194;43.408;24.626;2024-03-02T04:06:58;30.93;;;17.40;;
8312;SDS011;4194;43.408;24.626;2024-03-02T04:09:24;28.67;;;16.97;;
8312;SDS011;4194;43.408;24.626;2024-03-02T04:11:50;31.30;;;17.07;;
8312;SDS011;4194;43.408;24.626;2024-03-02T04:14:16;36.90;;;17.93;;
8312;SDS011;4194;43.408;24.626;2024-03-02T04:16:42;28.07;;;16.57;;
8312;SDS011;4194;43.408;24.626;2024-03-02T04:19:08;32.03;;;17.20;;
8312;SDS011;4194;43.408;24.626;2024-03-02T04:21:33;33.57;;;17.43;;
8312;SDS011;4194;43.408;24.626;2024-03-02T04:23:59;29.57;;;17.37;;
8312;SDS011;4194;43.408;24.626;2024-03-02T04:26:25;29.40;;;18.10;;
8312;SDS011;4194;43.408;24.626;2024-03-02T04:28:52;37.30;;;20.37;;
8312;SDS011;4194;43.408;24.626;2024-03-02T04:31:17;36.83;;;17.33;;
8312;SDS011;4194;43.408;24.626;2024-03-02T04:33:43;29.80;;;16.67;;
8312;SDS011;4194;43.408;24.626;2024-03-02T04:36:09;36.23;;;18.87;;
8312;SDS011;4194;43.408;24.626;2024-03-02T04:38:35;36.33;;;16.73;;
8312;SDS011;4194;43.408;24.626;2024-03-02T04:41:01;27.00;;;17.13;;
8312;SDS011;4194;43.408;24.626;2024-03-02T04:43:27;36.83;;;19.03;;
8312;SDS011;4194;43.408;24.626;2024-03-02T04:45:52;32.77;;;20.33;;
8312;SDS011;4194;43.408;24.626;2024-03-02T04:48:18;30.70;;;18.73;;
8312;SDS011;4194;43.408;24.626;2024-03-02T04:50:44;31.93;;;18.27;;
8312;SDS011;4194;43.408;24.626;2024-03-02T04:53:10;35.47;;;19.00;;
8312;SDS011;4194;43.408;24.626;2024-03-02T04:55:36;30.90;;;18.47;;
8312;SDS011;4194;43.408;24.626;2024-03-02T04:58:04;34.22;;;20.88;;
8312;SDS011;4194;43.408;24.626;2024-03-02T05:00:30;37.93;;;21.47;;
8312;SDS011;4194;43.408;24.626;2024-03-02T05:02:56;42.33;;;22.60;;
8312;SDS011;4194;43.408;24.626;2024-03-02T05:05:21;39.17;;;21.27;;
8312;SDS011;4194;43.408;24.626;2024-03-02T05:07:47;37.07;;;19.70;;
8312;SDS011;4194;43.408;24.626;2024-03-02T05:10:13;35.77;;;19.73;;
8312;SDS011;4194;43.408;24.626;2024-03-02T05:12:39;37.87;;;19.80;;
8312;SDS011;4194;43.408;24.626;2024-03-02T05:15:08;37.57;;;20.13;;
8312;SDS011;4194;43.408;24.626;2024-03-02T05:17:35;40.50;;;21.87;;
8312;SDS011;4194;43.408;24.626;2024-03-02T05:20:02;42.93;;;20.37;;
8312;SDS011;4194;43.408;24.626;2024-03-02T05:22:28;33.60;;;19.93;;
8312;SDS011;4194;43.408;24.626;2024-03-02T05:24:54;32.47;;;18.83;;
8312;SDS011;4194;43.408;24.626;2024-03-02T05:27:20;36.63;;;21.20;;
8312;SDS011;4194;43.408;24.626;2024-03-02T05:29:46;38.77;;;22.73;;
8312;SDS011;4194;43.408;24.626;2024-03-02T05:32:12;48.97;;;23.00;;
8312;SDS011;4194;43.408;24.626;2024-03-02T05:34:38;37.17;;;20.97;;
8312;SDS011;4194;43.408;24.626;2024-03-02T05:37:03;43.60;;;21.03;;
8312;SDS011;4194;43.408;24.626;2024-03-02T05:39:29;40.43;;;21.80;;
8312;SDS011;4194;43.408;24.626;2024-03-02T05:41:55;37.50;;;20.27;;
8312;SDS011;4194;43.408;24.626;2024-03-02T05:44:21;44.27;;;20.83;;
8312;SDS011;4194;43.408;24.626;2024-03-02T05:46:47;45.80;;;22.93;;
8312;SDS011;4194;43.408;24.626;2024-03-02T05:49:13;38.10;;;21.80;;
8312;SDS011;4194;43.408;24.626;2024-03-02T05:51:39;37.57;;;21.13;;
8312;SDS011;4194;43.408;24.626;2024-03-02T05:54:06;42.97;;;21.23;;
8312;SDS011;4194;43.408;24.626;2024-03-02T05:56:32;39.17;;;20.10;;
8312;SDS011;4194;43.408;24.626;2024-03-02T05:58:58;43.77;;;22.27;;
8312;SDS011;4194;43.408;24.626;2024-03-02T06:01:38;41.73;;;23.27;;
8312;SDS011;4194;43.408;24.626;2024-03-02T06:04:06;44.23;;;23.60;;
8312;SDS011;4194;43.408;24.626;2024-03-02T06:06:33;38.47;;;21.43;;
8312;SDS011;4194;43.408;24.626;2024-03-02T06:08:59;38.10;;;21.53;;
8312;SDS011;4194;43.408;24.626;2024-03-02T06:11:25;41.57;;;21.80;;
8312;SDS011;4194;43.408;24.626;2024-03-02T06:13:51;39.90;;;21.67;;
8312;SDS011;4194;43.408;24.626;2024-03-02T06:16:17;47.20;;;22.10;;
8312;SDS011;4194;43.408;24.626;2024-03-02T06:18:42;38.27;;;20.40;;
8312;SDS011;4194;43.408;24.626;2024-03-02T06:21:08;37.37;;;19.50;;
8312;SDS011;4194;43.408;24.626;2024-03-02T06:23:34;44.70;;;19.83;;
8312;SDS011;4194;43.408;24.626;2024-03-02T06:26:00;37.10;;;20.27;;
8312;SDS011;4194;43.408;24.626;2024-03-02T06:28:27;47.77;;;26.73;;
8312;SDS011;4194;43.408;24.626;2024-03-02T06:30:53;48.83;;;27.47;;
8312;SDS011;4194;43.408;24.626;2024-03-02T06:33:19;42.57;;;24.07;;
8312;SDS011;4194;43.408;24.626;2024-03-02T06:35:45;43.97;;;21.07;;
8312;SDS011;4194;43.408;24.626;2024-03-02T06:38:10;43.63;;;25.07;;
8312;SDS011;4194;43.408;24.626;2024-03-02T06:40:36;40.90;;;29.97;;
8312;SDS011;4194;43.408;24.626;2024-03-02T06:43:05;43.27;;;23.40;;
8312;SDS011;4194;43.408;24.626;2024-03-02T06:45:31;44.03;;;24.73;;
8312;SDS011;4194;43.408;24.626;2024-03-02T06:47:59;42.67;;;24.10;;
8312;SDS011;4194;43.408;24.626;2024-03-02T06:50:25;40.90;;;22.30;;
8312;SDS011;4194;43.408;24.626;2024-03-02T06:52:51;28.17;;;19.50;;
8312;SDS011;4194;43.408;24.626;2024-03-02T06:55:17;36.80;;;20.87;;
8312;SDS011;4194;43.408;24.626;2024-03-02T06:57:42;31.53;;;18.83;;
8312;SDS011;4194;43.408;24.626;2024-03-02T07:00:08;32.43;;;19.63;;
8312;SDS011;4194;43.408;24.626;2024-03-02T07:02:35;30.33;;;19.27;;
8312;SDS011;4194;43.408;24.626;2024-03-02T07:05:01;36.50;;;19.20;;
8312;SDS011;4194;43.408;24.626;2024-03-02T07:07:29;33.80;;;20.77;;
8312;SDS011;4194;43.408;24.626;2024-03-02T07:09:54;37.70;;;20.93;;
8312;SDS011;4194;43.408;24.626;2024-03-02T07:12:20;47.90;;;23.13;;
8312;SDS011;4194;43.408;24.626;2024-03-02T07:14:46;31.37;;;20.80;;
8312;SDS011;4194;43.408;24.626;2024-03-02T07:17:30;39.50;;;20.93;;
8312;SDS011;4194;43.408;24.626;2024-03-02T07:19:56;41.47;;;20.77;;
8312;SDS011;4194;43.408;24.626;2024-03-02T07:22:22;41.20;;;20.97;;
8312;SDS011;4194;43.408;24.626;2024-03-02T07:24:50;48.70;;;21.33;;
8312;SDS011;4194;43.408;24.626;2024-03-02T07:27:16;38.27;;;20.00;;
8312;SDS011;4194;43.408;24.626;2024-03-02T07:29:43;48.67;;;19.27;;
8312;SDS011;4194;43.408;24.626;2024-03-02T07:32:09;37.03;;;19.93;;
8312;SDS011;4194;43.408;24.626;2024-03-02T07:34:35;50.43;;;20.00;;
8312;SDS011;4194;43.408;24.626;2024-03-02T07:37:01;38.57;;;19.67;;
8312;SDS011;4194;43.408;24.626;2024-03-02T07:39:27;35.33;;;18.73;;
8312;SDS011;4194;43.408;24.626;2024-03-02T07:41:53;41.60;;;20.27;;
8312;SDS011;4194;43.408;24.626;2024-03-02T07:44:19;42.37;;;20.37;;
8312;SDS011;4194;43.408;24.626;2024-03-02T07:46:45;41.83;;;21.27;;
8312;SDS011;4194;43.408;24.626;2024-03-02T07:49:11;35.03;;;21.20;;
8312;SDS011;4194;43.408;24.626;2024-03-02T07:51:41;29.03;;;18.87;;
8312;SDS011;4194;43.408;24.626;2024-03-02T07:54:07;38.60;;;19.27;;
8312;SDS011;4194;43.408;24.626;2024-03-02T07:56:32;33.00;;;17.67;;
8312;SDS011;4194;43.408;24.626;2024-03-02T07:58:58;30.17;;;18.30;;
8312;SDS011;4194;43.408;24.626;2024-03-02T08:01:33;34.27;;;18.67;;
8312;SDS011;4194;43.408;24.626;2024-03-02T08:03:59;37.97;;;19.97;;
8312;SDS011;4194;43.408;24.626;2024-03-02T08:06:26;29.37;;;18.23;;
8312;SDS011;4194;43.408;24.626;2024-03-02T08:08:59;34.40;;;18.70;;
8312;SDS011;4194;43.408;24.626;2024-03-02T08:11:25;37.67;;;19.83;;
8312;SDS011;4194;43.408;24.626;2024-03-02T08:13:52;37.37;;;21.37;;
8312;SDS011;4194;43.408;24.626;2024-03-02T08:16:20;38.83;;;20.20;;
8312;SDS011;4194;43.408;24.626;2024-03-02T08:18:52;37.53;;;19.77;;
8312;SDS011;4194;43.408;24.626;2024-03-02T08:21:19;34.53;;;18.73;;
8312;SDS011;4194;43.408;24.626;2024-03-02T08:23:45;32.00;;;18.90;;
8312;SDS011;4194;43.408;24.626;2024-03-02T08:26:11;29.97;;;18.67;;
8312;SDS011;4194;43.408;24.626;2024-03-02T08:28:37;33.30;;;19.27;;
8312;SDS011;4194;43.408;24.626;2024-03-02T08:31:05;39.50;;;19.30;;
8312;SDS011;4194;43.408;24.626;2024-03-02T08:33:31;34.40;;;20.73;;
8312;SDS011;4194;43.408;24.626;2024-03-02T08:35:57;30.80;;;18.53;;
8312;SDS011;4194;43.408;24.626;2024-03-02T08:38:23;37.37;;;19.40;;
8312;SDS011;4194;43.408;24.626;2024-03-02T08:40:49;31.53;;;18.63;;
8312;SDS011;4194;43.408;24.626;2024-03-02T08:43:15;32.93;;;19.63;;
8312;SDS011;4194;43.408;24.626;2024-03-02T08:45:41;33.27;;;19.57;;
8312;SDS011;4194;43.408;24.626;2024-03-02T08:48:07;39.03;;;19.77;;
8312;SDS011;4194;43.408;24.626;2024-03-02T08:50:34;46.57;;;23.23;;
8312;SDS011;4194;43.408;24.626;2024-03-02T08:53:00;44.50;;;28.27;;
8312;SDS011;4194;43.408;24.626;2024-03-02T08:55:26;40.97;;;23.43;;
8312;SDS011;4194;43.408;24.626;2024-03-02T08:57:51;35.07;;;21.03;;
8312;SDS011;4194;43.408;24.626;2024-03-02T09:00:17;37.73;;;19.80;;
8312;SDS011;4194;43.408;24.626;2024-03-02T09:02:44;40.63;;;20.67;;
8312;SDS011;4194;43.408;24.626;2024-03-02T09:05:11;35.37;;;20.03;;
8312;SDS011;4194;43.408;24.626;2024-03-02T09:07:37;39.60;;;20.97;;
8312;SDS011;4194;43.408;24.626;2024-03-02T09:10:04;42.53;;;20.93;;
8312;SDS011;4194;43.408;24.626;2024-03-02T09:12:31;43.33;;;21.27;;
8312;SDS011;4194;43.408;24.626;2024-03-02T09:14:59;45.00;;;22.03;;
8312;SDS011;4194;43.408;24.626;2024-03-02T09:17:25;34.10;;;20.70;;
8312;SDS011;4194;43.408;24.626;2024-03-02T09:19:51;32.80;;;20.50;;
8312;SDS011;4194;43.408;24.626;2024-03-02T09:22:20;40.63;;;22.17;;
8312;SDS011;4194;43.408;24.626;2024-03-02T09:24:45;42.47;;;23.00;;
8312;SDS011;4194;43.408;24.626;2024-03-02T09:27:11;46.87;;;22.27;;
8312;SDS011;4194;43.408;24.626;2024-03-02T09:29:37;36.67;;;20.67;;
8312;SDS011;4194;43.408;24.626;2024-03-02T09:32:03;42.27;;;20.13;;
8312;SDS011;4194;43.408;24.626;2024-03-02T09:34:30;42.27;;;21.83;;
8312;SDS011;4194;43.408;24.626;2024-03-02T09:36:56;31.33;;;19.63;;
8312;SDS011;4194;43.408;24.626;2024-03-02T09:39:23;37.70;;;20.67;;
8312;SDS011;4194;43.408;24.626;2024-03-02T09:41:50;38.07;;;21.67;;
8312;SDS011;4194;43.408;24.626;2024-03-02T09:44:16;36.30;;;20.53;;
8312;SDS011;4194;43.408;24.626;2024-03-02T09:46:42;36.67;;;20.97;;
8312;SDS011;4194;43.408;24.626;2024-03-02T09:49:09;37.83;;;22.60;;
8312;SDS011;4194;43.408;24.626;2024-03-02T09:51:36;42.13;;;21.60;;
8312;SDS011;4194;43.408;24.626;2024-03-02T09:54:02;32.27;;;21.33;;
8312;SDS011;4194;43.408;24.626;2024-03-02T09:56:28;40.83;;;24.83;;
8312;SDS011;4194;43.408;24.626;2024-03-02T09:58:54;38.80;;;24.70;;
8312;SDS011;4194;43.408;24.626;2024-03-02T10:01:20;49.13;;;24.00;;
8312;SDS011;4194;43.408;24.626;2024-03-02T10:03:46;34.63;;;23.60;;
8312;SDS011;4194;43.408;24.626;2024-03-02T10:06:21;37.20;;;20.87;;
8312;SDS011;4194;43.408;24.626;2024-03-02T10:08:48;35.87;;;23.37;;
8312;SDS011;4194;43.408;24.626;2024-03-02T10:11:33;46.30;;;24.33;;
8312;SDS011;4194;43.408;24.626;2024-03-02T10:14:11;46.73;;;25.83;;
8312;SDS011;4194;43.408;24.626;2024-03-02T10:16:39;37.27;;;24.30;;
8312;SDS011;4194;43.408;24.626;2024-03-02T10:21:45;56.43;;;29.87;;
8312;SDS011;4194;43.408;24.626;2024-03-02T10:24:11;51.43;;;29.20;;
8312;SDS011;4194;43.408;24.626;2024-03-02T10:26:37;46.70;;;27.83;;
8312;SDS011;4194;43.408;24.626;2024-03-02T10:29:03;85.47;;;45.03;;
8312;SDS011;4194;43.408;24.626;2024-03-02T10:31:29;70.40;;;43.73;;
8312;SDS011;4194;43.408;24.626;2024-03-02T10:33:55;41.43;;;26.10;;
8312;SDS011;4194;43.408;24.626;2024-03-02T10:36:24;41.10;;;23.90;;
8312;SDS011;4194;43.408;24.626;2024-03-02T10:38:51;38.17;;;23.90;;
8312;SDS011;4194;43.408;24.626;2024-03-02T10:41:22;34.30;;;21.20;;
8312;SDS011;4194;43.408;24.626;2024-03-02T10:43:49;39.97;;;20.97;;
8312;SDS011;4194;43.408;24.626;2024-03-02T10:46:20;32.17;;;20.53;;
8312;SDS011;4194;43.408;24.626;2024-03-02T10:48:47;33.23;;;21.83;;
8312;SDS011;4194;43.408;24.626;2024-03-02T10:51:14;32.40;;;21.00;;
8312;SDS011;4194;43.408;24.626;2024-03-02T10:53:40;34.07;;;20.77;;
8312;SDS011;4194;43.408;24.626;2024-03-02T10:56:07;35.80;;;23.07;;
8312;SDS011;4194;43.408;24.626;2024-03-02T10:58:34;31.87;;;19.43;;
8312;SDS011;4194;43.408;24.626;2024-03-02T11:01:02;41.70;;;21.03;;
8312;SDS011;4194;43.408;24.626;2024-03-02T11:03:33;39.37;;;20.67;;
8312;SDS011;4194;43.408;24.626;2024-03-02T11:06:00;42.63;;;20.40;;
8312;SDS011;4194;43.408;24.626;2024-03-02T11:08:31;37.40;;;19.80;;
8312;SDS011;4194;43.408;24.626;2024-03-02T11:11:03;36.07;;;19.50;;
8312;SDS011;4194;43.408;24.626;2024-03-02T11:13:35;34.03;;;21.60;;
8312;SDS011;4194;43.408;24.626;2024-03-02T11:16:06;34.17;;;20.03;;
8312;SDS011;4194;43.408;24.626;2024-03-02T11:18:41;31.17;;;21.93;;
8312;SDS011;4194;43.408;24.626;2024-03-02T11:21:07;39.50;;;20.53;;
8312;SDS011;4194;43.408;24.626;2024-03-02T11:23:33;38.57;;;21.57;;
8312;SDS011;4194;43.408;24.626;2024-03-02T11:28:45;34.77;;;20.90;;
8312;SDS011;4194;43.408;24.626;2024-03-02T11:31:11;31.53;;;20.77;;
8312;SDS011;4194;43.408;24.626;2024-03-02T11:33:39;34.30;;;21.03;;
8312;SDS011;4194;43.408;24.626;2024-03-02T11:36:08;33.63;;;21.07;;
8312;SDS011;4194;43.408;24.626;2024-03-02T11:38:34;35.77;;;20.60;;
8312;SDS011;4194;43.408;24.626;2024-03-02T11:41:09;46.40;;;21.53;;
8312;SDS011;4194;43.408;24.626;2024-03-02T11:43:39;31.20;;;18.90;;
8312;SDS011;4194;43.408;24.626;2024-03-02T11:46:05;30.20;;;20.10;;
8312;SDS011;4194;43.408;24.626;2024-03-02T11:48:32;35.03;;;19.33;;
8312;SDS011;4194;43.408;24.626;2024-03-02T11:51:00;34.10;;;18.57;;
8312;SDS011;4194;43.408;24.626;2024-03-02T11:53:26;33.53;;;20.60;;
8312;SDS011;4194;43.408;24.626;2024-03-02T11:55:57;30.47;;;20.00;;
8312;SDS011;4194;43.408;24.626;2024-03-02T11:58:24;35.53;;;18.93;;
8312;SDS011;4194;43.408;24.626;2024-03-02T12:00:51;35.90;;;19.50;;
8312;SDS011;4194;43.408;24.626;2024-03-02T12:03:18;27.87;;;18.80;;
8312;SDS011;4194;43.408;24.626;2024-03-02T12:05:50;28.03;;;18.77;;
8312;SDS011;4194;43.408;24.626;2024-03-02T12:08:17;39.83;;;19.77;;
8312;SDS011;4194;43.408;24.626;2024-03-02T12:10:43;35.50;;;19.93;;
8312;SDS011;4194;43.408;24.626;2024-03-02T12:13:24;36.47;;;18.43;;
8312;SDS011;4194;43.408;24.626;2024-03-02T12:15:52;38.10;;;20.03;;
8312;SDS011;4194;43.408;24.626;2024-03-02T12:18:22;37.20;;;18.90;;
8312;SDS011;4194;43.408;24.626;2024-03-02T12:20:48;43.07;;;19.40;;
8312;SDS011;4194;43.408;24.626;2024-03-02T12:23:21;38.13;;;18.87;;
8312;SDS011;4194;43.408;24.626;2024-03-02T12:25:47;29.83;;;18.10;;
8312;SDS011;4194;43.408;24.626;2024-03-02T12:28:13;29.93;;;17.17;;
8312;SDS011;4194;43.408;24.626;2024-03-02T12:30:39;31.23;;;17.90;;
8312;SDS011;4194;43.408;24.626;2024-03-02T12:33:05;43.37;;;20.17;;
8312;SDS011;4194;43.408;24.626;2024-03-02T12:35:31;37.03;;;18.50;;
8312;SDS011;4194;43.408;24.626;2024-03-02T12:37:56;31.43;;;16.83;;
8312;SDS011;4194;43.408;24.626;2024-03-02T12:40:23;43.40;;;17.87;;
8312;SDS011;4194;43.408;24.626;2024-03-02T12:42:49;33.87;;;18.57;;
8312;SDS011;4194;43.408;24.626;2024-03-02T12:45:15;34.03;;;17.63;;
8312;SDS011;4194;43.408;24.626;2024-03-02T12:47:48;33.37;;;18.67;;
8312;SDS011;4194;43.408;24.626;2024-03-02T12:50:14;34.33;;;18.27;;
8312;SDS011;4194;43.408;24.626;2024-03-02T12:52:40;28.57;;;17.00;;
8312;SDS011;4194;43.408;24.626;2024-03-02T12:55:06;28.83;;;17.00;;
8312;SDS011;4194;43.408;24.626;2024-03-02T12:57:32;30.77;;;18.27;;
8312;SDS011;4194;43.408;24.626;2024-03-02T13:00:01;31.10;;;19.53;;
8312;SDS011;4194;43.408;24.626;2024-03-02T13:02:34;32.17;;;19.57;;
8312;SDS011;4194;43.408;24.626;2024-03-02T13:05:01;31.90;;;19.63;;
8312;SDS011;4194;43.408;24.626;2024-03-02T13:07:28;40.90;;;20.40;;
8312;SDS011;4194;43.408;24.626;2024-03-02T13:09:54;43.40;;;22.40;;
8312;SDS011;4194;43.408;24.626;2024-03-02T13:12:21;37.67;;;20.90;;
8312;SDS011;4194;43.408;24.626;2024-03-02T13:14:48;38.70;;;20.53;;
8312;SDS011;4194;43.408;24.626;2024-03-02T13:17:17;31.90;;;18.67;;
8312;SDS011;4194;43.408;24.626;2024-03-02T13:19:59;34.13;;;19.40;;
8312;SDS011;4194;43.408;24.626;2024-03-02T13:22:25;33.20;;;18.40;;
8312;SDS011;4194;43.408;24.626;2024-03-02T13:24:51;33.77;;;19.40;;
8312;SDS011;4194;43.408;24.626;2024-03-02T13:27:19;29.23;;;18.87;;
8312;SDS011;4194;43.408;24.626;2024-03-02T13:29:48;33.57;;;20.30;;
8312;SDS011;4194;43.408;24.626;2024-03-02T13:32:14;36.97;;;20.33;;
8312;SDS011;4194;43.408;24.626;2024-03-02T13:34:40;35.97;;;19.67;;
8312;SDS011;4194;43.408;24.626;2024-03-02T13:37:07;33.77;;;19.23;;
8312;SDS011;4194;43.408;24.626;2024-03-02T13:39:33;37.17;;;20.33;;
8312;SDS011;4194;43.408;24.626;2024-03-02T13:42:04;37.07;;;19.90;;
8312;SDS011;4194;43.408;24.626;2024-03-02T13:44:34;28.93;;;19.23;;
8312;SDS011;4194;43.408;24.626;2024-03-02T13:47:00;32.67;;;19.60;;
8312;SDS011;4194;43.408;24.626;2024-03-02T13:49:26;36.73;;;19.53;;
8312;SDS011;4194;43.408;24.626;2024-03-02T13:51:58;35.87;;;18.87;;
8312;SDS011;4194;43.408;24.626;2024-03-02T13:54:38;34.17;;;19.20;;
8312;SDS011;4194;43.408;24.626;2024-03-02T13:57:08;41.07;;;19.17;;
8312;SDS011;4194;43.408;24.626;2024-03-02T13:59:35;36.77;;;18.67;;
8312;SDS011;4194;43.408;24.626;2024-03-02T14:02:01;34.37;;;19.97;;
8312;SDS011;4194;43.408;24.626;2024-03-02T14:04:34;36.27;;;19.07;;
8312;SDS011;4194;43.408;24.626;2024-03-02T14:07:00;37.73;;;19.67;;
8312;SDS011;4194;43.408;24.626;2024-03-02T14:09:27;26.67;;;17.63;;
8312;SDS011;4194;43.408;24.626;2024-03-02T14:11:53;36.47;;;19.07;;
8312;SDS011;4194;43.408;24.626;2024-03-02T14:14:19;38.43;;;18.93;;
8312;SDS011;4194;43.408;24.626;2024-03-02T14:16:45;37.47;;;18.43;;
8312;SDS011;4194;43.408;24.626;2024-03-02T14:19:11;34.40;;;19.17;;
8312;SDS011;4194;43.408;24.626;2024-03-02T14:21:40;35.23;;;17.97;;
8312;SDS011;4194;43.408;24.626;2024-03-02T14:24:06;31.50;;;17.93;;
8312;SDS011;4194;43.408;24.626;2024-03-02T14:26:32;33.33;;;17.90;;
8312;SDS011;4194;43.408;24.626;2024-03-02T14:28:58;33.37;;;19.20;;
8312;SDS011;4194;43.408;24.626;2024-03-02T14:31:27;33.47;;;18.37;;
8312;SDS011;4194;43.408;24.626;2024-03-02T14:33:53;32.10;;;18.10;;
8312;SDS011;4194;43.408;24.626;2024-03-02T14:36:20;41.90;;;18.87;;
8312;SDS011;4194;43.408;24.626;2024-03-02T14:38:45;31.83;;;18.53;;
8312;SDS011;4194;43.408;24.626;2024-03-02T14:41:12;38.17;;;20.92;;
8312;SDS011;4194;43.408;24.626;2024-03-02T14:43:38;33.03;;;19.30;;